sensor_id;sensor_type;location;lat;lon;timestamp;P1;durP1;ratioP1;P2;durP2;ratioP2
1601;SDS011;794;48.592;9.634;2022-08-19T00:01:23;32.17;;;28.90;;
1601;SDS011;794;48.592;9.634;2022-08-19T00:03:52;33.20;;;29.93;;
1601;SDS011;794;48.592;9.634;2022-08-19T00:06:19;30.57;;;27.40;;
1601;SDS011;794;48.592;9.634;2022-08-19T00:08:46;30.97;;;26.57;;
1601;SDS011;794;48.592;9.634;2022-08-19T00:11:13;31.57;;;28.20;;
1601;SDS011;794;48.592;9.634;2022-08-19T00:13:40;31.07;;;26.70;;
1601;SDS011;794;48.592;9.634;2022-08-19T00:16:08;30.13;;;26.97;;
1601;SDS011;794;48.592;9.634;2022-08-19T00:18:35;30.70;;;27.60;;
1601;SDS011;794;48.592;9.634;2022-08-19T00:21:02;31.70;;;27.13;;
1601;SDS011;794;48.592;9.634;2022-08-19T00:23:33;32.07;;;28.67;;
1601;SDS011;794;48.592;9.634;2022-08-19T00:26:01;30.80;;;27.50;;
1601;SDS011;794;48.592;9.634;2022-08-19T00:28:29;29.10;;;26.10;;
1601;SDS011;794;48.592;9.634;2022-08-19T00:30:56;29.90;;;26.80;;
1601;SDS011;794;48.592;9.634;2022-08-19T00:33:24;28.93;;;25.93;;
1601;SDS011;794;48.592;9.634;2022-08-19T00:35:51;29.60;;;26.50;;
1601;SDS011;794;48.592;9.634;2022-08-19T00:38:18;26.80;;;24.20;;
1601;SDS011;794;48.592;9.634;2022-08-19T00:40:48;28.53;;;25.73;;
1601;SDS011;794;48.592;9.634;2022-08-19T00:43:18;29.70;;;26.60;;
1601;SDS011;794;48.592;9.634;2022-08-19T00:45:46;27.53;;;24.77;;
1601;SDS011;794;48.592;9.634;2022-08-19T00:48:13;32.73;;;27.63;;
1601;SDS011;794;48.592;9.634;2022-08-19T00:50:43;27.10;;;24.10;;
1601;SDS011;794;48.592;9.634;2022-08-19T00:53:12;27.60;;;24.70;;
1601;SDS011;794;48.592;9.634;2022-08-19T00:55:42;30.77;;;27.67;;
1601;SDS011;794;48.592;9.634;2022-08-19T00:58:15;29.77;;;26.57;;
1601;SDS011;794;48.592;9.634;2022-08-19T01:00:43;30.13;;;26.93;;
1601;SDS011;794;48.592;9.634;2022-08-19T01:03:13;29.43;;;26.33;;
1601;SDS011;794;48.592;9.634;2022-08-19T01:05:43;30.00;;;26.90;;
1601;SDS011;794;48.592;9.634;2022-08-19T01:08:14;28.30;;;25.50;;
1601;SDS011;794;48.592;9.634;2022-08-19T01:10:43;28.60;;;25.57;;
1601;SDS011;794;48.592;9.634;2022-08-19T01:13:13;29.27;;;26.27;;
1601;SDS011;794;48.592;9.634;2022-08-19T01:15:43;28.90;;;26.00;;
1601;SDS011;794;48.592;9.634;2022-08-19T01:18:13;31.10;;;27.70;;
1601;SDS011;794;48.592;9.634;2022-08-19T01:20:44;29.47;;;26.47;;
1601;SDS011;794;48.592;9.634;2022-08-19T01:23:12;28.43;;;25.53;;
1601;SDS011;794;48.592;9.634;2022-08-19T01:25:42;30.93;;;27.50;;
1601;SDS011;794;48.592;9.634;2022-08-19T01:28:16;33.03;;;29.53;;
1601;SDS011;794;48.592;9.634;2022-08-19T01:30:44;31.57;;;28.13;;
1601;SDS011;794;48.592;9.634;2022-08-19T01:33:12;32.07;;;28.67;;
1601;SDS011;794;48.592;9.634;2022-08-19T01:35:40;28.23;;;25.30;;
1601;SDS011;794;48.592;9.634;2022-08-19T01:38:08;30.87;;;27.07;;
1601;SDS011;794;48.592;9.634;2022-08-19T01:40:44;30.97;;;27.67;;
1601;SDS011;794;48.592;9.634;2022-08-19T01:43:11;31.90;;;28.50;;
1601;SDS011;794;48.592;9.634;2022-08-19T01:45:38;31.10;;;26.60;;
1601;SDS011;794;48.592;9.634;2022-08-19T01:48:06;32.63;;;26.40;;
1601;SDS011;794;48.592;9.634;2022-08-19T01:50:34;32.63;;;28.57;;
1601;SDS011;794;48.592;9.634;2022-08-19T01:53:03;37.50;;;31.10;;
1601;SDS011;794;48.592;9.634;2022-08-19T01:55:32;32.00;;;26.80;;
1601;SDS011;794;48.592;9.634;2022-08-19T01:58:02;31.17;;;27.80;;
1601;SDS011;794;48.592;9.634;2022-08-19T02:00:31;31.30;;;28.00;;
1601;SDS011;794;48.592;9.634;2022-08-19T02:02:58;32.37;;;28.07;;
1601;SDS011;794;48.592;9.634;2022-08-19T02:05:26;32.87;;;29.20;;
1601;SDS011;794;48.592;9.634;2022-08-19T02:07:54;32.70;;;28.70;;
1601;SDS011;794;48.592;9.634;2022-08-19T02:10:21;30.47;;;26.93;;
1601;SDS011;794;48.592;9.634;2022-08-19T02:12:49;33.27;;;28.57;;
1601;SDS011;794;48.592;9.634;2022-08-19T02:15:18;40.60;;;28.40;;
1601;SDS011;794;48.592;9.634;2022-08-19T02:17:45;39.47;;;29.50;;
1601;SDS011;794;48.592;9.634;2022-08-19T02:20:13;32.83;;;28.43;;
1601;SDS011;794;48.592;9.634;2022-08-19T02:22:41;31.73;;;27.83;;
1601;SDS011;794;48.592;9.634;2022-08-19T02:25:09;35.03;;;30.20;;
1601;SDS011;794;48.592;9.634;2022-08-19T02:27:36;35.30;;;30.47;;
1601;SDS011;794;48.592;9.634;2022-08-19T02:30:04;40.07;;;31.47;;
1601;SDS011;794;48.592;9.634;2022-08-19T02:32:34;35.27;;;30.10;;
1601;SDS011;794;48.592;9.634;2022-08-19T02:35:01;38.97;;;31.83;;
1601;SDS011;794;48.592;9.634;2022-08-19T02:37:28;36.60;;;30.67;;
1601;SDS011;794;48.592;9.634;2022-08-19T02:40:13;41.63;;;30.17;;
1601;SDS011;794;48.592;9.634;2022-08-19T02:42:40;37.07;;;29.73;;
1601;SDS011;794;48.592;9.634;2022-08-19T02:45:08;34.50;;;29.07;;
1601;SDS011;794;48.592;9.634;2022-08-19T02:47:36;35.30;;;27.83;;
1601;SDS011;794;48.592;9.634;2022-08-19T02:50:04;30.67;;;27.27;;
1601;SDS011;794;48.592;9.634;2022-08-19T02:52:32;36.37;;;28.10;;
1601;SDS011;794;48.592;9.634;2022-08-19T02:54:59;33.33;;;27.30;;
1601;SDS011;794;48.592;9.634;2022-08-19T02:57:27;36.23;;;28.43;;
1601;SDS011;794;48.592;9.634;2022-08-19T02:59:54;39.63;;;29.97;;
1601;SDS011;794;48.592;9.634;2022-08-19T03:02:21;36.33;;;29.50;;
1601;SDS011;794;48.592;9.634;2022-08-19T03:04:49;32.63;;;27.53;;
1601;SDS011;794;48.592;9.634;2022-08-19T03:07:17;35.07;;;28.03;;
1601;SDS011;794;48.592;9.634;2022-08-19T03:09:44;37.60;;;29.20;;
1601;SDS011;794;48.592;9.634;2022-08-19T03:12:11;40.70;;;28.70;;
1601;SDS011;794;48.592;9.634;2022-08-19T03:14:38;38.87;;;30.63;;
1601;SDS011;794;48.592;9.634;2022-08-19T03:17:05;34.20;;;29.37;;
1601;SDS011;794;48.592;9.634;2022-08-19T03:19:33;35.20;;;29.30;;
1601;SDS011;794;48.592;9.634;2022-08-19T03:22:01;37.53;;;30.00;;
1601;SDS011;794;48.592;9.634;2022-08-19T03:24:29;35.70;;;28.17;;
1601;SDS011;794;48.592;9.634;2022-08-19T03:26:56;31.97;;;26.67;;
1601;SDS011;794;48.592;9.634;2022-08-19T03:29:24;35.33;;;28.80;;
1601;SDS011;794;48.592;9.634;2022-08-19T03:31:52;39.90;;;29.77;;
1601;SDS011;794;48.592;9.634;2022-08-19T03:34:23;32.23;;;27.67;;
1601;SDS011;794;48.592;9.634;2022-08-19T03:36:52;36.10;;;29.17;;
1601;SDS011;794;48.592;9.634;2022-08-19T03:39:21;36.77;;;28.33;;
1601;SDS011;794;48.592;9.634;2022-08-19T03:41:49;38.77;;;30.17;;
1601;SDS011;794;48.592;9.634;2022-08-19T03:44:18;33.80;;;27.57;;
1601;SDS011;794;48.592;9.634;2022-08-19T03:46:47;38.07;;;31.90;;
1601;SDS011;794;48.592;9.634;2022-08-19T03:49:16;43.20;;;32.53;;
1601;SDS011;794;48.592;9.634;2022-08-19T03:51:44;40.07;;;29.63;;
1601;SDS011;794;48.592;9.634;2022-08-19T03:54:13;34.27;;;27.30;;
1601;SDS011;794;48.592;9.634;2022-08-19T03:56:43;37.10;;;27.63;;
1601;SDS011;794;48.592;9.634;2022-08-19T03:59:12;40.20;;;26.93;;
1601;SDS011;794;48.592;9.634;2022-08-19T04:01:41;34.60;;;29.20;;
1601;SDS011;794;48.592;9.634;2022-08-19T04:04:09;38.80;;;30.33;;
1601;SDS011;794;48.592;9.634;2022-08-19T04:06:36;36.57;;;29.07;;
1601;SDS011;794;48.592;9.634;2022-08-19T04:09:06;36.23;;;28.80;;
1601;SDS011;794;48.592;9.634;2022-08-19T04:11:35;36.33;;;28.10;;
1601;SDS011;794;48.592;9.634;2022-08-19T04:14:06;35.67;;;26.93;;
1601;SDS011;794;48.592;9.634;2022-08-19T04:16:34;35.23;;;27.73;;
1601;SDS011;794;48.592;9.634;2022-08-19T04:19:02;38.10;;;28.90;;
1601;SDS011;794;48.592;9.634;2022-08-19T04:21:29;34.77;;;28.93;;
1601;SDS011;794;48.592;9.634;2022-08-19T04:23:57;38.33;;;27.90;;
1601;SDS011;794;48.592;9.634;2022-08-19T04:26:25;38.17;;;29.37;;
1601;SDS011;794;48.592;9.634;2022-08-19T04:28:57;33.90;;;28.97;;
1601;SDS011;794;48.592;9.634;2022-08-19T04:31:27;38.97;;;29.57;;
1601;SDS011;794;48.592;9.634;2022-08-19T04:33:56;37.70;;;28.87;;
1601;SDS011;794;48.592;9.634;2022-08-19T04:36:25;36.30;;;30.50;;
1601;SDS011;794;48.592;9.634;2022-08-19T04:38:54;36.30;;;28.93;;
1601;SDS011;794;48.592;9.634;2022-08-19T04:41:22;37.00;;;28.93;;
1601;SDS011;794;48.592;9.634;2022-08-19T04:44:07;41.90;;;30.97;;
1601;SDS011;794;48.592;9.634;2022-08-19T04:46:36;37.73;;;29.60;;
1601;SDS011;794;48.592;9.634;2022-08-19T04:49:04;39.90;;;30.30;;
1601;SDS011;794;48.592;9.634;2022-08-19T04:51:31;38.23;;;29.10;;
1601;SDS011;794;48.592;9.634;2022-08-19T04:54:02;41.37;;;30.90;;
1601;SDS011;794;48.592;9.634;2022-08-19T04:56:29;41.27;;;29.70;;
1601;SDS011;794;48.592;9.634;2022-08-19T04:58:56;42.93;;;30.53;;
1601;SDS011;794;48.592;9.634;2022-08-19T05:01:28;40.60;;;30.20;;
1601;SDS011;794;48.592;9.634;2022-08-19T05:03:58;39.70;;;29.67;;
1601;SDS011;794;48.592;9.634;2022-08-19T05:06:27;44.43;;;29.77;;
1601;SDS011;794;48.592;9.634;2022-08-19T05:08:57;38.40;;;29.33;;
1601;SDS011;794;48.592;9.634;2022-08-19T05:11:25;40.17;;;28.80;;
1601;SDS011;794;48.592;9.634;2022-08-19T05:13:54;40.47;;;30.60;;
1601;SDS011;794;48.592;9.634;2022-08-19T05:16:21;38.03;;;29.67;;
1601;SDS011;794;48.592;9.634;2022-08-19T05:18:49;36.23;;;28.47;;
1601;SDS011;794;48.592;9.634;2022-08-19T05:21:35;44.77;;;33.23;;
1601;SDS011;794;48.592;9.634;2022-08-19T05:24:20;42.37;;;31.50;;
1601;SDS011;794;48.592;9.634;2022-08-19T05:26:48;38.43;;;29.13;;
1601;SDS011;794;48.592;9.634;2022-08-19T05:29:18;36.90;;;29.87;;
1601;SDS011;794;48.592;9.634;2022-08-19T05:31:47;47.23;;;33.63;;
1601;SDS011;794;48.592;9.634;2022-08-19T05:34:15;42.60;;;31.37;;
1601;SDS011;794;48.592;9.634;2022-08-19T05:36:44;42.53;;;31.60;;
1601;SDS011;794;48.592;9.634;2022-08-19T05:39:12;42.97;;;29.77;;
1601;SDS011;794;48.592;9.634;2022-08-19T05:41:41;43.73;;;31.90;;
1601;SDS011;794;48.592;9.634;2022-08-19T05:44:08;39.83;;;31.67;;
1601;SDS011;794;48.592;9.634;2022-08-19T05:46:35;41.57;;;33.40;;
1601;SDS011;794;48.592;9.634;2022-08-19T05:49:03;41.00;;;30.60;;
1601;SDS011;794;48.592;9.634;2022-08-19T05:51:31;38.97;;;31.43;;
1601;SDS011;794;48.592;9.634;2022-08-19T05:54:00;43.83;;;32.20;;
1601;SDS011;794;48.592;9.634;2022-08-19T05:56:27;41.53;;;31.90;;
1601;SDS011;794;48.592;9.634;2022-08-19T05:58:55;38.60;;;32.47;;
1601;SDS011;794;48.592;9.634;2022-08-19T06:01:24;41.00;;;31.83;;
1601;SDS011;794;48.592;9.634;2022-08-19T06:03:52;36.87;;;30.90;;
1601;SDS011;794;48.592;9.634;2022-08-19T06:06:20;36.70;;;31.23;;
1601;SDS011;794;48.592;9.634;2022-08-19T06:08:47;44.47;;;34.13;;
1601;SDS011;794;48.592;9.634;2022-08-19T06:11:18;37.30;;;30.90;;
1601;SDS011;794;48.592;9.634;2022-08-19T06:13:47;40.00;;;31.27;;
1601;SDS011;794;48.592;9.634;2022-08-19T06:16:17;40.00;;;32.00;;
1601;SDS011;794;48.592;9.634;2022-08-19T06:18:48;41.37;;;32.03;;
1601;SDS011;794;48.592;9.634;2022-08-19T06:21:18;40.23;;;32.53;;
1601;SDS011;794;48.592;9.634;2022-08-19T06:23:45;39.57;;;32.73;;
1601;SDS011;794;48.592;9.634;2022-08-19T06:26:13;36.03;;;31.07;;
1601;SDS011;794;48.592;9.634;2022-08-19T06:28:42;43.27;;;34.47;;
1601;SDS011;794;48.592;9.634;2022-08-19T06:31:11;41.73;;;32.93;;
1601;SDS011;794;48.592;9.634;2022-08-19T06:33:41;41.13;;;33.13;;
1601;SDS011;794;48.592;9.634;2022-08-19T06:36:08;38.80;;;34.00;;
1601;SDS011;794;48.592;9.634;2022-08-19T06:38:42;41.20;;;31.20;;
1601;SDS011;794;48.592;9.634;2022-08-19T06:41:09;45.80;;;37.07;;
1601;SDS011;794;48.592;9.634;2022-08-19T06:43:36;40.97;;;32.10;;
1601;SDS011;794;48.592;9.634;2022-08-19T06:46:08;43.07;;;32.97;;
1601;SDS011;794;48.592;9.634;2022-08-19T06:48:37;40.30;;;33.37;;
1601;SDS011;794;48.592;9.634;2022-08-19T06:51:05;38.43;;;31.63;;
1601;SDS011;794;48.592;9.634;2022-08-19T06:53:32;38.00;;;30.60;;
1601;SDS011;794;48.592;9.634;2022-08-19T06:55:59;40.37;;;33.83;;
1601;SDS011;794;48.592;9.634;2022-08-19T06:58:27;41.20;;;33.23;;
1601;SDS011;794;48.592;9.634;2022-08-19T07:00:57;43.13;;;33.37;;
1601;SDS011;794;48.592;9.634;2022-08-19T07:03:29;40.23;;;33.00;;
1601;SDS011;794;48.592;9.634;2022-08-19T07:05:58;37.03;;;32.67;;
1601;SDS011;794;48.592;9.634;2022-08-19T07:08:29;40.73;;;32.47;;
1601;SDS011;794;48.592;9.634;2022-08-19T07:10:56;35.83;;;30.13;;
1601;SDS011;794;48.592;9.634;2022-08-19T07:13:24;44.50;;;33.97;;
1601;SDS011;794;48.592;9.634;2022-08-19T07:15:51;34.70;;;29.57;;
1601;SDS011;794;48.592;9.634;2022-08-19T07:18:18;39.27;;;30.80;;
1601;SDS011;794;48.592;9.634;2022-08-19T07:20:47;37.50;;;31.70;;
1601;SDS011;794;48.592;9.634;2022-08-19T07:23:14;38.80;;;30.40;;
1601;SDS011;794;48.592;9.634;2022-08-19T07:25:41;35.10;;;29.57;;
1601;SDS011;794;48.592;9.634;2022-08-19T07:28:09;38.83;;;28.80;;
1601;SDS011;794;48.592;9.634;2022-08-19T07:30:36;33.83;;;28.10;;
1601;SDS011;794;48.592;9.634;2022-08-19T07:33:05;37.83;;;31.20;;
1601;SDS011;794;48.592;9.634;2022-08-19T07:35:32;33.43;;;28.67;;
1601;SDS011;794;48.592;9.634;2022-08-19T07:38:01;33.87;;;28.33;;
1601;SDS011;794;48.592;9.634;2022-08-19T07:40:29;37.80;;;28.77;;
1601;SDS011;794;48.592;9.634;2022-08-19T07:42:57;32.30;;;28.03;;
1601;SDS011;794;48.592;9.634;2022-08-19T07:45:24;37.27;;;30.93;;
1601;SDS011;794;48.592;9.634;2022-08-19T07:47:52;38.83;;;30.27;;
1601;SDS011;794;48.592;9.634;2022-08-19T07:50:19;37.07;;;30.70;;
1601;SDS011;794;48.592;9.634;2022-08-19T07:52:48;38.37;;;31.83;;
1601;SDS011;794;48.592;9.634;2022-08-19T07:55:17;36.30;;;30.53;;
1601;SDS011;794;48.592;9.634;2022-08-19T07:57:46;38.70;;;32.00;;
1601;SDS011;794;48.592;9.634;2022-08-19T08:00:14;39.03;;;31.67;;
1601;SDS011;794;48.592;9.634;2022-08-19T08:02:41;39.30;;;31.17;;
1601;SDS011;794;48.592;9.634;2022-08-19T08:05:08;40.60;;;32.27;;
1601;SDS011;794;48.592;9.634;2022-08-19T08:07:53;34.20;;;28.83;;
1601;SDS011;794;48.592;9.634;2022-08-19T08:10:39;37.97;;;30.63;;
1601;SDS011;794;48.592;9.634;2022-08-19T08:13:06;39.80;;;32.27;;
1601;SDS011;794;48.592;9.634;2022-08-19T08:15:33;43.10;;;33.30;;
1601;SDS011;794;48.592;9.634;2022-08-19T08:18:02;40.70;;;31.07;;
1601;SDS011;794;48.592;9.634;2022-08-19T08:20:29;38.97;;;32.60;;
1601;SDS011;794;48.592;9.634;2022-08-19T08:22:56;42.80;;;32.13;;
1601;SDS011;794;48.592;9.634;2022-08-19T08:25:51;36.53;;;31.40;;
1601;SDS011;794;48.592;9.634;2022-08-19T08:28:20;35.10;;;29.87;;
1601;SDS011;794;48.592;9.634;2022-08-19T08:30:47;34.87;;;28.80;;
1601;SDS011;794;48.592;9.634;2022-08-19T08:33:17;32.03;;;26.97;;
1601;SDS011;794;48.592;9.634;2022-08-19T08:35:45;32.07;;;28.77;;
1601;SDS011;794;48.592;9.634;2022-08-19T08:38:12;34.40;;;27.43;;
1601;SDS011;794;48.592;9.634;2022-08-19T08:40:44;31.80;;;28.47;;
1601;SDS011;794;48.592;9.634;2022-08-19T08:43:21;29.80;;;25.73;;
1601;SDS011;794;48.592;9.634;2022-08-19T08:45:52;31.67;;;25.07;;
1601;SDS011;794;48.592;9.634;2022-08-19T08:48:24;33.20;;;27.27;;
1601;SDS011;794;48.592;9.634;2022-08-19T08:50:59;33.33;;;27.70;;
1601;SDS011;794;48.592;9.634;2022-08-19T08:53:29;31.07;;;25.07;;
1601;SDS011;794;48.592;9.634;2022-08-19T08:55:58;28.90;;;25.80;;
1601;SDS011;794;48.592;9.634;2022-08-19T08:58:30;30.80;;;25.80;;
1601;SDS011;794;48.592;9.634;2022-08-19T09:01:08;29.77;;;26.60;;
1601;SDS011;794;48.592;9.634;2022-08-19T09:03:36;31.70;;;27.43;;
1601;SDS011;794;48.592;9.634;2022-08-19T09:06:07;35.20;;;27.50;;
1601;SDS011;794;48.592;9.634;2022-08-19T09:08:43;32.97;;;28.93;;
1601;SDS011;794;48.592;9.634;2022-08-19T09:11:15;33.40;;;29.10;;
1601;SDS011;794;48.592;9.634;2022-08-19T09:13:56;35.33;;;29.33;;
1601;SDS011;794;48.592;9.634;2022-08-19T09:16:31;33.80;;;29.63;;
1601;SDS011;794;48.592;9.634;2022-08-19T09:19:00;36.80;;;29.63;;
1601;SDS011;794;48.592;9.634;2022-08-19T09:21:30;37.70;;;29.83;;
1601;SDS011;794;48.592;9.634;2022-08-19T09:23:57;36.70;;;31.00;;
1601;SDS011;794;48.592;9.634;2022-08-19T09:26:25;35.70;;;31.67;;
1601;SDS011;794;48.592;9.634;2022-08-19T09:28:54;38.80;;;32.07;;
1601;SDS011;794;48.592;9.634;2022-08-19T09:31:24;40.70;;;33.93;;
1601;SDS011;794;48.592;9.634;2022-08-19T09:33:54;45.03;;;34.07;;
1601;SDS011;794;48.592;9.634;2022-08-19T09:36:22;41.00;;;32.80;;
1601;SDS011;794;48.592;9.634;2022-08-19T09:38:51;36.23;;;28.67;;
1601;SDS011;794;48.592;9.634;2022-08-19T09:41:19;39.97;;;32.30;;
1601;SDS011;794;48.592;9.634;2022-08-19T09:43:49;34.87;;;30.53;;
1601;SDS011;794;48.592;9.634;2022-08-19T09:46:22;35.63;;;30.97;;
1601;SDS011;794;48.592;9.634;2022-08-19T09:48:51;34.97;;;29.47;;
1601;SDS011;794;48.592;9.634;2022-08-19T09:51:20;35.37;;;30.40;;
1601;SDS011;794;48.592;9.634;2022-08-19T09:53:48;40.67;;;30.20;;
1601;SDS011;794;48.592;9.634;2022-08-19T09:56:19;37.67;;;30.50;;
1601;SDS011;794;48.592;9.634;2022-08-19T09:58:47;32.33;;;28.50;;
1601;SDS011;794;48.592;9.634;2022-08-19T10:01:16;32.50;;;27.20;;
1601;SDS011;794;48.592;9.634;2022-08-19T10:03:46;31.30;;;26.57;;
1601;SDS011;794;48.592;9.634;2022-08-19T10:06:15;32.60;;;27.67;;
1601;SDS011;794;48.592;9.634;2022-08-19T10:08:43;32.73;;;28.00;;
1601;SDS011;794;48.592;9.634;2022-08-19T10:11:11;32.77;;;27.20;;
1601;SDS011;794;48.592;9.634;2022-08-19T10:13:41;30.90;;;27.37;;
1601;SDS011;794;48.592;9.634;2022-08-19T10:16:10;30.00;;;26.87;;
1601;SDS011;794;48.592;9.634;2022-08-19T10:18:39;28.57;;;24.73;;
1601;SDS011;794;48.592;9.634;2022-08-19T10:21:10;25.93;;;23.23;;
1601;SDS011;794;48.592;9.634;2022-08-19T10:23:41;27.17;;;24.07;;
1601;SDS011;794;48.592;9.634;2022-08-19T10:26:11;27.93;;;25.03;;
1601;SDS011;794;48.592;9.634;2022-08-19T10:28:39;28.10;;;25.10;;
1601;SDS011;794;48.592;9.634;2022-08-19T10:31:07;28.10;;;25.30;;
1601;SDS011;794;48.592;9.634;2022-08-19T10:33:35;27.87;;;25.07;;
1601;SDS011;794;48.592;9.634;2022-08-19T10:36:04;27.53;;;23.77;;
1601;SDS011;794;48.592;9.634;2022-08-19T10:38:35;29.57;;;24.50;;
1601;SDS011;794;48.592;9.634;2022-08-19T10:41:12;27.27;;;24.37;;
1601;SDS011;794;48.592;9.634;2022-08-19T10:43:44;31.40;;;26.37;;
1601;SDS011;794;48.592;9.634;2022-08-19T10:46:13;30.13;;;27.07;;
1601;SDS011;794;48.592;9.634;2022-08-19T10:48:41;32.60;;;26.83;;
1601;SDS011;794;48.592;9.634;2022-08-19T10:51:09;34.60;;;28.30;;
1601;SDS011;794;48.592;9.634;2022-08-19T10:53:56;33.33;;;29.77;;
1601;SDS011;794;48.592;9.634;2022-08-19T10:56:24;34.20;;;27.93;;
1601;SDS011;794;48.592;9.634;2022-08-19T10:59:09;34.53;;;29.73;;
1601;SDS011;794;48.592;9.634;2022-08-19T11:01:39;37.10;;;29.73;;
1601;SDS011;794;48.592;9.634;2022-08-19T11:04:07;36.47;;;29.80;;
1601;SDS011;794;48.592;9.634;2022-08-19T11:06:36;37.23;;;31.23;;
1601;SDS011;794;48.592;9.634;2022-08-19T11:09:05;37.47;;;32.67;;
1601;SDS011;794;48.592;9.634;2022-08-19T11:11:32;36.90;;;32.83;;
1601;SDS011;794;48.592;9.634;2022-08-19T11:14:06;38.50;;;34.30;;
1601;SDS011;794;48.592;9.634;2022-08-19T11:16:33;42.60;;;33.93;;
1601;SDS011;794;48.592;9.634;2022-08-19T11:19:01;42.60;;;31.90;;
1601;SDS011;794;48.592;9.634;2022-08-19T11:21:29;39.80;;;34.60;;
1601;SDS011;794;48.592;9.634;2022-08-19T11:23:58;39.70;;;34.03;;
1601;SDS011;794;48.592;9.634;2022-08-19T11:26:31;39.90;;;33.90;;
1601;SDS011;794;48.592;9.634;2022-08-19T11:28:59;48.87;;;35.30;;
1601;SDS011;794;48.592;9.634;2022-08-19T11:31:28;40.93;;;33.17;;
1601;SDS011;794;48.592;9.634;2022-08-19T11:33:57;43.67;;;34.27;;
1601;SDS011;794;48.592;9.634;2022-08-19T11:36:25;41.33;;;33.40;;
1601;SDS011;794;48.592;9.634;2022-08-19T11:38:52;40.23;;;32.53;;
1601;SDS011;794;48.592;9.634;2022-08-19T11:41:20;41.70;;;34.40;;
1601;SDS011;794;48.592;9.634;2022-08-19T11:43:50;41.23;;;32.90;;
1601;SDS011;794;48.592;9.634;2022-08-19T11:46:20;38.50;;;33.00;;
1601;SDS011;794;48.592;9.634;2022-08-19T11:48:49;39.70;;;33.67;;
1601;SDS011;794;48.592;9.634;2022-08-19T11:51:18;42.07;;;33.07;;
1601;SDS011;794;48.592;9.634;2022-08-19T11:53:46;39.97;;;33.17;;
1601;SDS011;794;48.592;9.634;2022-08-19T11:56:15;38.43;;;31.47;;
1601;SDS011;794;48.592;9.634;2022-08-19T11:58:42;41.53;;;36.23;;
1601;SDS011;794;48.592;9.634;2022-08-19T12:01:11;39.53;;;34.70;;
1601;SDS011;794;48.592;9.634;2022-08-19T12:03:41;47.07;;;33.90;;
1601;SDS011;794;48.592;9.634;2022-08-19T12:06:09;37.13;;;32.93;;
1601;SDS011;794;48.592;9.634;2022-08-19T12:08:38;33.70;;;30.00;;
1601;SDS011;794;48.592;9.634;2022-08-19T12:11:05;34.50;;;30.90;;
1601;SDS011;794;48.592;9.634;2022-08-19T12:13:33;39.90;;;33.10;;
1601;SDS011;794;48.592;9.634;2022-08-19T12:16:01;39.33;;;34.20;;
1601;SDS011;794;48.592;9.634;2022-08-19T12:18:38;41.17;;;33.80;;
1601;SDS011;794;48.592;9.634;2022-08-19T12:21:08;43.80;;;35.30;;
1601;SDS011;794;48.592;9.634;2022-08-19T12:23:36;38.10;;;31.77;;
1601;SDS011;794;48.592;9.634;2022-08-19T12:26:03;39.90;;;35.30;;
1601;SDS011;794;48.592;9.634;2022-08-19T12:28:30;35.47;;;29.60;;
1601;SDS011;794;48.592;9.634;2022-08-19T12:30:58;29.43;;;26.03;;
1601;SDS011;794;48.592;9.634;2022-08-19T12:33:25;28.90;;;24.03;;
1601;SDS011;794;48.592;9.634;2022-08-19T12:35:54;25.90;;;23.07;;
1601;SDS011;794;48.592;9.634;2022-08-19T12:38:25;21.80;;;19.50;;
1601;SDS011;794;48.592;9.634;2022-08-19T12:40:52;23.27;;;20.67;;
1601;SDS011;794;48.592;9.634;2022-08-19T12:43:19;25.63;;;20.80;;
1601;SDS011;794;48.592;9.634;2022-08-19T12:45:47;28.60;;;22.93;;
1601;SDS011;794;48.592;9.634;2022-08-19T12:48:14;24.17;;;21.70;;
1601;SDS011;794;48.592;9.634;2022-08-19T12:50:41;23.03;;;20.70;;
1601;SDS011;794;48.592;9.634;2022-08-19T12:53:12;21.10;;;18.93;;
1601;SDS011;794;48.592;9.634;2022-08-19T12:55:39;19.60;;;17.50;;
1601;SDS011;794;48.592;9.634;2022-08-19T12:58:07;20.97;;;18.83;;
1601;SDS011;794;48.592;9.634;2022-08-19T13:00:34;22.60;;;20.20;;
1601;SDS011;794;48.592;9.634;2022-08-19T13:03:01;23.00;;;20.50;;
1601;SDS011;794;48.592;9.634;2022-08-19T13:05:29;23.87;;;20.97;;
1601;SDS011;794;48.592;9.634;2022-08-19T13:07:58;23.20;;;20.90;;
1601;SDS011;794;48.592;9.634;2022-08-19T13:10:28;21.13;;;19.07;;
1601;SDS011;794;48.592;9.634;2022-08-19T13:13:00;23.33;;;20.90;;
1601;SDS011;794;48.592;9.634;2022-08-19T13:15:28;29.30;;;23.83;;
1601;SDS011;794;48.592;9.634;2022-08-19T13:17:57;22.67;;;20.37;;
1601;SDS011;794;48.592;9.634;2022-08-19T13:20:24;24.13;;;21.67;;
1601;SDS011;794;48.592;9.634;2022-08-19T13:22:51;25.20;;;22.63;;
1601;SDS011;794;48.592;9.634;2022-08-19T13:25:18;21.20;;;19.13;;
1601;SDS011;794;48.592;9.634;2022-08-19T13:27:47;22.43;;;20.30;;
1601;SDS011;794;48.592;9.634;2022-08-19T13:30:16;22.10;;;19.70;;
1601;SDS011;794;48.592;9.634;2022-08-19T13:33:01;23.13;;;20.73;;
1601;SDS011;794;48.592;9.634;2022-08-19T13:35:40;23.07;;;19.57;;
1601;SDS011;794;48.592;9.634;2022-08-19T13:38:08;22.50;;;20.33;;
1601;SDS011;794;48.592;9.634;2022-08-19T13:40:35;20.70;;;18.60;;
1601;SDS011;794;48.592;9.634;2022-08-19T13:43:04;22.33;;;20.10;;
1601;SDS011;794;48.592;9.634;2022-08-19T13:45:32;25.03;;;21.67;;
1601;SDS011;794;48.592;9.634;2022-08-19T13:48:00;26.30;;;21.63;;
1601;SDS011;794;48.592;9.634;2022-08-19T13:50:32;21.43;;;19.27;;
1601;SDS011;794;48.592;9.634;2022-08-19T13:52:59;23.87;;;20.10;;
1601;SDS011;794;48.592;9.634;2022-08-19T13:55:28;23.10;;;20.70;;
1601;SDS011;794;48.592;9.634;2022-08-19T13:57:56;21.97;;;19.73;;
1601;SDS011;794;48.592;9.634;2022-08-19T14:00:27;23.93;;;21.60;;
1601;SDS011;794;48.592;9.634;2022-08-19T14:02:56;23.17;;;20.80;;
1601;SDS011;794;48.592;9.634;2022-08-19T14:05:24;22.60;;;20.33;;
1601;SDS011;794;48.592;9.634;2022-08-19T14:07:52;23.03;;;20.80;;
1601;SDS011;794;48.592;9.634;2022-08-19T14:10:20;20.63;;;18.57;;
1601;SDS011;794;48.592;9.634;2022-08-19T14:12:48;21.80;;;19.50;;
1601;SDS011;794;48.592;9.634;2022-08-19T14:15:15;22.00;;;19.90;;
1601;SDS011;794;48.592;9.634;2022-08-19T14:17:44;22.57;;;20.27;;
1601;SDS011;794;48.592;9.634;2022-08-19T14:20:14;21.70;;;19.40;;
1601;SDS011;794;48.592;9.634;2022-08-19T14:22:42;19.23;;;17.33;;
1601;SDS011;794;48.592;9.634;2022-08-19T14:25:10;18.20;;;15.93;;
1601;SDS011;794;48.592;9.634;2022-08-19T14:27:38;18.00;;;16.30;;
1601;SDS011;794;48.592;9.634;2022-08-19T14:30:07;20.53;;;18.33;;
1601;SDS011;794;48.592;9.634;2022-08-19T14:32:37;20.03;;;18.20;;
1601;SDS011;794;48.592;9.634;2022-08-19T14:35:06;22.20;;;18.33;;
1601;SDS011;794;48.592;9.634;2022-08-19T14:37:33;25.83;;;21.50;;
1601;SDS011;794;48.592;9.634;2022-08-19T14:40:02;22.40;;;20.10;;
1601;SDS011;794;48.592;9.634;2022-08-19T14:42:29;23.70;;;21.40;;
1601;SDS011;794;48.592;9.634;2022-08-19T14:44:57;22.03;;;19.90;;
1601;SDS011;794;48.592;9.634;2022-08-19T14:47:24;21.50;;;19.20;;
1601;SDS011;794;48.592;9.634;2022-08-19T14:49:52;21.40;;;19.20;;
1601;SDS011;794;48.592;9.634;2022-08-19T14:52:20;21.77;;;19.57;;
1601;SDS011;794;48.592;9.634;2022-08-19T14:54:47;23.67;;;19.60;;
1601;SDS011;794;48.592;9.634;2022-08-19T14:57:14;22.33;;;20.10;;
1601;SDS011;794;48.592;9.634;2022-08-19T14:59:41;20.37;;;17.97;;
1601;SDS011;794;48.592;9.634;2022-08-19T15:02:09;21.83;;;19.63;;
1601;SDS011;794;48.592;9.634;2022-08-19T15:04:36;19.20;;;17.40;;
1601;SDS011;794;48.592;9.634;2022-08-19T15:07:03;20.80;;;18.80;;
1601;SDS011;794;48.592;9.634;2022-08-19T15:09:32;23.43;;;18.87;;
1601;SDS011;794;48.592;9.634;2022-08-19T15:11:59;19.83;;;17.83;;